sensor_id;sensor_type;location;lat;lon;timestamp;temperature;humidity
23079;DHT22;11707;50.830;4.364;2022-09-29T00:02:17;9.80;99.90
23079;DHT22;11707;50.830;4.364;2022-09-29T00:04:43;9.80;99.90
23079;DHT22;11707;50.830;4.364;2022-09-29T00:07:09;9.90;99.90
23079;DHT22;11707;50.830;4.364;2022-09-29T00:09:34;10.00;99.90
23079;DHT22;11707;50.830;4.364;2022-09-29T00:12:00;10.20;99.90
23079;DHT22;11707;50.830;4.364;2022-09-29T00:14:26;10.30;99.90
23079;DHT22;11707;50.830;4.364;2022-09-29T00:16:52;10.40;99.90
23079;DHT22;11707;50.830;4.364;2022-09-29T00:19:18;10.40;99.90
23079;DHT22;11707;50.830;4.364;2022-09-29T00:21:44;10.40;99.90
23079;DHT22;11707;50.830;4.364;2022-09-29T00:24:10;10.40;99.90
23079;DHT22;11707;50.830;4.364;2022-09-29T00:26:36;10.40;99.90
23079;DHT22;11707;50.830;4.364;2022-09-29T00:29:02;10.30;99.90
23079;DHT22;11707;50.830;4.364;2022-09-29T00:31:31;10.20;99.90
23079;DHT22;11707;50.830;4.364;2022-09-29T00:33:57;10.20;99.90
23079;DHT22;11707;50.830;4.364;2022-09-29T00:36:24;10.10;99.90
23079;DHT22;11707;50.830;4.364;2022-09-29T00:38:55;10.10;99.90
23079;DHT22;11707;50.830;4.364;2022-09-29T00:41:26;10.00;99.90
23079;DHT22;11707;50.830;4.364;2022-09-29T00:52:01;10.10;99.90
23079;DHT22;11707;50.830;4.364;2022-09-29T00:54:33;10.20;99.90
23079;DHT22;11707;50.830;4.364;2022-09-29T00:57:03;10.20;99.90
23079;DHT22;11707;50.830;4.364;2022-09-29T00:59:37;10.20;99.90
23079;DHT22;11707;50.830;4.364;2022-09-29T01:02:04;10.20;99.90
23079;DHT22;11707;50.830;4.364;2022-09-29T01:04:30;10.20;99.90
23079;DHT22;11707;50.830;4.364;2022-09-29T01:06:57;10.20;99.90
23079;DHT22;11707;50.830;4.364;2022-09-29T01:09:26;10.10;99.90
23079;DHT22;11707;50.830;4.364;2022-09-29T01:11:55;10.10;99.90
23079;DHT22;11707;50.830;4.364;2022-09-29T01:14:23;10.10;99.90
23079;DHT22;11707;50.830;4.364;2022-09-29T01:16:50;9.90;99.90
23079;DHT22;11707;50.830;4.364;2022-09-29T01:19:22;9.70;99.90
23079;DHT22;11707;50.830;4.364;2022-09-29T01:30:22;10.00;99.90
23079;DHT22;11707;50.830;4.364;2022-09-29T01:33:25;10.10;99.90
23079;DHT22;11707;50.830;4.364;2022-09-29T01:36:02;10.10;99.90
23079;DHT22;11707;50.830;4.364;2022-09-29T01:41:15;10.10;99.90
23079;DHT22;11707;50.830;4.364;2022-09-29T01:44:12;10.00;99.90
23079;DHT22;11707;50.830;4.364;2022-09-29T01:46:39;10.00;99.90
23079;DHT22;11707;50.830;4.364;2022-09-29T01:49:06;9.90;99.90
23079;DHT22;11707;50.830;4.364;2022-09-29T01:51:49;9.90;99.90
23079;DHT22;11707;50.830;4.364;2022-09-29T01:54:23;9.70;99.90
23079;DHT22;11707;50.830;4.364;2022-09-29T01:56:54;9.60;99.90
23079;DHT22;11707;50.830;4.364;2022-09-29T01:59:27;9.50;99.90
23079;DHT22;11707;50.830;4.364;2022-09-29T02:01:59;9.60;99.90
23079;DHT22;11707;50.830;4.364;2022-09-29T02:04:39;9.80;99.90
23079;DHT22;11707;50.830;4.364;2022-09-29T02:07:10;9.90;99.90
23079;DHT22;11707;50.830;4.364;2022-09-29T02:09:43;10.00;99.90
23079;DHT22;11707;50.830;4.364;2022-09-29T02:12:13;10.00;99.90
23079;DHT22;11707;50.830;4.364;2022-09-29T02:14:42;9.90;99.90
23079;DHT22;11707;50.830;4.364;2022-09-29T02:17:18;9.90;99.90
23079;DHT22;11707;50.830;4.364;2022-09-29T02:19:47;9.70;99.90
23079;DHT22;11707;50.830;4.364;2022-09-29T02:22:14;9.40;99.90
23079;DHT22;11707;50.830;4.364;2022-09-29T02:24:40;9.20;99.90
23079;DHT22;11707;50.830;4.364;2022-09-29T02:27:06;9.10;99.90
23079;DHT22;11707;50.830;4.364;2022-09-29T02:29:36;9.20;99.90
23079;DHT22;11707;50.830;4.364;2022-09-29T02:32:04;9.30;99.90
23079;DHT22;11707;50.830;4.364;2022-09-29T02:34:32;9.40;99.90
23079;DHT22;11707;50.830;4.364;2022-09-29T02:37:08;9.30;99.90
23079;DHT22;11707;50.830;4.364;2022-09-29T02:39:52;9.40;99.90
23079;DHT22;11707;50.830;4.364;2022-09-29T02:58:30;8.90;99.90
23079;DHT22;11707;50.830;4.364;2022-09-29T03:00:59;8.80;99.90
23079;DHT22;11707;50.830;4.364;2022-09-29T03:03:25;9.00;99.90
23079;DHT22;11707;50.830;4.364;2022-09-29T03:05:51;9.10;99.90
23079;DHT22;11707;50.830;4.364;2022-09-29T03:08:17;9.00;99.90
23079;DHT22;11707;50.830;4.364;2022-09-29T03:10:42;9.10;99.90
23079;DHT22;11707;50.830;4.364;2022-09-29T03:13:08;9.10;99.90
23079;DHT22;11707;50.830;4.364;2022-09-29T03:15:34;9.20;99.90
23079;DHT22;11707;50.830;4.364;2022-09-29T03:18:00;9.30;99.90
23079;DHT22;11707;50.830;4.364;2022-09-29T03:20:27;9.50;99.90
23079;DHT22;11707;50.830;4.364;2022-09-29T03:22:56;9.40;99.90
23079;DHT22;11707;50.830;4.364;2022-09-29T03:25:22;9.40;99.90
23079;DHT22;11707;50.830;4.364;2022-09-29T03:27:49;9.50;99.90
23079;DHT22;11707;50.830;4.364;2022-09-29T03:30:16;9.50;99.90
23079;DHT22;11707;50.830;4.364;2022-09-29T03:32:42;9.50;99.90
23079;DHT22;11707;50.830;4.364;2022-09-29T03:35:09;9.60;99.90
23079;DHT22;11707;50.830;4.364;2022-09-29T03:37:34;9.60;99.90
23079;DHT22;11707;50.830;4.364;2022-09-29T03:40:00;9.50;99.90
23079;DHT22;11707;50.830;4.364;2022-09-29T03:42:26;9.40;99.90
23079;DHT22;11707;50.830;4.364;2022-09-29T03:44:53;9.40;99.90
23079;DHT22;11707;50.830;4.364;2022-09-29T03:47:19;9.30;99.90
23079;DHT22;11707;50.830;4.364;2022-09-29T03:49:45;9.30;99.90
23079;DHT22;11707;50.830;4.364;2022-09-29T03:52:11;9.20;99.90
23079;DHT22;11707;50.830;4.364;2022-09-29T03:54:36;9.20;99.90
23079;DHT22;11707;50.830;4.364;2022-09-29T03:57:02;9.40;99.90
23079;DHT22;11707;50.830;4.364;2022-09-29T03:59:28;9.60;99.90
23079;DHT22;11707;50.830;4.364;2022-09-29T04:01:54;9.30;99.90
23079;DHT22;11707;50.830;4.364;2022-09-29T04:04:20;9.00;99.90
23079;DHT22;11707;50.830;4.364;2022-09-29T04:06:46;8.90;99.90
23079;DHT22;11707;50.830;4.364;2022-09-29T04:09:12;9.00;99.90
23079;DHT22;11707;50.830;4.364;2022-09-29T04:11:38;8.90;99.90
23079;DHT22;11707;50.830;4.364;2022-09-29T04:14:04;8.90;99.90
23079;DHT22;11707;50.830;4.364;2022-09-29T04:16:30;8.80;99.90
23079;DHT22;11707;50.830;4.364;2022-09-29T04:18:55;8.70;99.90
23079;DHT22;11707;50.830;4.364;2022-09-29T04:21:21;8.90;99.90
23079;DHT22;11707;50.830;4.364;2022-09-29T04:23:47;9.00;99.90
23079;DHT22;11707;50.830;4.364;2022-09-29T04:26:13;9.20;99.90
23079;DHT22;11707;50.830;4.364;2022-09-29T04:28:39;9.40;99.90
23079;DHT22;11707;50.830;4.364;2022-09-29T04:31:05;9.50;99.90
23079;DHT22;11707;50.830;4.364;2022-09-29T04:33:30;9.50;99.90
23079;DHT22;11707;50.830;4.364;2022-09-29T04:35:57;9.10;99.90
23079;DHT22;11707;50.830;4.364;2022-09-29T04:38:23;9.20;99.90
23079;DHT22;11707;50.830;4.364;2022-09-29T04:40:49;9.10;99.90
23079;DHT22;11707;50.830;4.364;2022-09-29T04:43:15;9.10;99.90
23079;DHT22;11707;50.830;4.364;2022-09-29T04:45:41;9.10;99.90
23079;DHT22;11707;50.830;4.364;2022-09-29T04:48:07;9.20;99.90
23079;DHT22;11707;50.830;4.364;2022-09-29T04:50:32;9.30;99.90
23079;DHT22;11707;50.830;4.364;2022-09-29T04:52:58;9.40;99.90
23079;DHT22;11707;50.830;4.364;2022-09-29T04:55:25;9.50;99.90
23079;DHT22;11707;50.830;4.364;2022-09-29T04:57:51;9.50;99.90
23079;DHT22;11707;50.830;4.364;2022-09-29T05:00:17;9.40;99.90
23079;DHT22;11707;50.830;4.364;2022-09-29T05:02:43;9.50;99.90
23079;DHT22;11707;50.830;4.364;2022-09-29T05:05:09;9.60;99.90
23079;DHT22;11707;50.830;4.364;2022-09-29T05:07:37;9.70;99.90
23079;DHT22;11707;50.830;4.364;2022-09-29T05:10:05;9.80;99.90
23079;DHT22;11707;50.830;4.364;2022-09-29T05:12:31;9.80;99.90
23079;DHT22;11707;50.830;4.364;2022-09-29T05:14:57;9.90;99.90
23079;DHT22;11707;50.830;4.364;2022-09-29T05:17:23;9.90;99.90
23079;DHT22;11707;50.830;4.364;2022-09-29T05:19:48;9.80;99.90
23079;DHT22;11707;50.830;4.364;2022-09-29T05:22:14;9.80;99.90
23079;DHT22;11707;50.830;4.364;2022-09-29T05:24:40;9.80;99.90
23079;DHT22;11707;50.830;4.364;2022-09-29T05:27:05;9.80;99.90
23079;DHT22;11707;50.830;4.364;2022-09-29T05:29:31;9.50;99.90
23079;DHT22;11707;50.830;4.364;2022-09-29T05:31:57;9.60;99.90
23079;DHT22;11707;50.830;4.364;2022-09-29T05:34:23;9.70;99.90
23079;DHT22;11707;50.830;4.364;2022-09-29T05:36:49;9.70;99.90
23079;DHT22;11707;50.830;4.364;2022-09-29T05:39:14;9.80;99.90
23079;DHT22;11707;50.830;4.364;2022-09-29T05:41:42;9.80;99.90
23079;DHT22;11707;50.830;4.364;2022-09-29T05:44:07;9.70;99.90
23079;DHT22;11707;50.830;4.364;2022-09-29T05:46:33;9.70;99.90
23079;DHT22;11707;50.830;4.364;2022-09-29T05:48:59;9.60;99.90
23079;DHT22;11707;50.830;4.364;2022-09-29T05:51:26;9.60;99.90
23079;DHT22;11707;50.830;4.364;2022-09-29T05:53:52;9.60;99.90
23079;DHT22;11707;50.830;4.364;2022-09-29T05:56:21;9.60;99.90
23079;DHT22;11707;50.830;4.364;2022-09-29T05:58:47;9.70;99.90
23079;DHT22;11707;50.830;4.364;2022-09-29T06:01:21;9.70;99.90
23079;DHT22;11707;50.830;4.364;2022-09-29T06:03:47;9.50;99.90
23079;DHT22;11707;50.830;4.364;2022-09-29T06:06:20;9.60;99.90
23079;DHT22;11707;50.830;4.364;2022-09-29T06:08:47;9.70;99.90
23079;DHT22;11707;50.830;4.364;2022-09-29T06:11:24;9.80;99.90
23079;DHT22;11707;50.830;4.364;2022-09-29T06:13:52;9.80;99.90
23079;DHT22;11707;50.830;4.364;2022-09-29T06:16:22;9.80;99.90
23079;DHT22;11707;50.830;4.364;2022-09-29T06:18:48;9.80;99.90
23079;DHT22;11707;50.830;4.364;2022-09-29T06:21:21;9.70;99.90
23079;DHT22;11707;50.830;4.364;2022-09-29T06:23:49;9.80;99.90
23079;DHT22;11707;50.830;4.364;2022-09-29T06:26:17;9.80;99.90
23079;DHT22;11707;50.830;4.364;2022-09-29T06:28:43;9.80;99.90
23079;DHT22;11707;50.830;4.364;2022-09-29T06:31:15;9.60;99.90
23079;DHT22;11707;50.830;4.364;2022-09-29T06:33:41;9.70;99.90
23079;DHT22;11707;50.830;4.364;2022-09-29T06:39:05;9.70;99.90
23079;DHT22;11707;50.830;4.364;2022-09-29T06:41:31;9.80;99.90
23079;DHT22;11707;50.830;4.364;2022-09-29T06:43:59;9.90;99.90
23079;DHT22;11707;50.830;4.364;2022-09-29T06:46:24;10.10;99.90
23079;DHT22;11707;50.830;4.364;2022-09-29T06:48:55;10.00;99.90
23079;DHT22;11707;50.830;4.364;2022-09-29T06:51:25;10.10;99.90
23079;DHT22;11707;50.830;4.364;2022-09-29T06:53:51;10.20;99.90
23079;DHT22;11707;50.830;4.364;2022-09-29T06:56:17;10.10;99.90
23079;DHT22;11707;50.830;4.364;2022-09-29T06:58:45;10.00;99.90
23079;DHT22;11707;50.830;4.364;2022-09-29T07:01:11;10.00;99.90
23079;DHT22;11707;50.830;4.364;2022-09-29T07:03:37;10.00;99.90
23079;DHT22;11707;50.830;4.364;2022-09-29T07:06:05;10.20;99.90
23079;DHT22;11707;50.830;4.364;2022-09-29T07:08:31;10.20;99.90
23079;DHT22;11707;50.830;4.364;2022-09-29T07:10:59;10.20;99.90
23079;DHT22;11707;50.830;4.364;2022-09-29T07:13:25;10.30;99.90
23079;DHT22;11707;50.830;4.364;2022-09-29T07:15:51;10.40;99.90
23079;DHT22;11707;50.830;4.364;2022-09-29T07:18:19;10.50;99.90
23079;DHT22;11707;50.830;4.364;2022-09-29T07:20:45;10.40;99.90
23079;DHT22;11707;50.830;4.364;2022-09-29T07:23:11;10.50;99.90
23079;DHT22;11707;50.830;4.364;2022-09-29T07:25:38;10.80;99.90
23079;DHT22;11707;50.830;4.364;2022-09-29T07:28:04;11.00;99.90
23079;DHT22;11707;50.830;4.364;2022-09-29T07:30:29;11.10;99.90
23079;DHT22;11707;50.830;4.364;2022-09-29T07:32:56;11.20;99.90
23079;DHT22;11707;50.830;4.364;2022-09-29T07:35:22;11.20;99.90
23079;DHT22;11707;50.830;4.364;2022-09-29T07:37:52;11.20;99.90
23079;DHT22;11707;50.830;4.364;2022-09-29T07:40:20;11.20;99.90
23079;DHT22;11707;50.830;4.364;2022-09-29T07:42:46;11.20;99.90
23079;DHT22;11707;50.830;4.364;2022-09-29T07:45:12;11.10;99.90
23079;DHT22;11707;50.830;4.364;2022-09-29T07:47:37;11.00;99.90
23079;DHT22;11707;50.830;4.364;2022-09-29T07:50:04;11.10;99.90
23079;DHT22;11707;50.830;4.364;2022-09-29T07:52:30;11.10;99.90
23079;DHT22;11707;50.830;4.364;2022-09-29T07:54:55;11.20;99.90
23079;DHT22;11707;50.830;4.364;2022-09-29T07:57:21;11.20;99.90
23079;DHT22;11707;50.830;4.364;2022-09-29T07:59:47;11.20;99.90
23079;DHT22;11707;50.830;4.364;2022-09-29T08:02:13;11.30;99.90
23079;DHT22;11707;50.830;4.364;2022-09-29T08:04:39;11.20;99.90
23079;DHT22;11707;50.830;4.364;2022-09-29T08:07:06;11.20;99.90
23079;DHT22;11707;50.830;4.364;2022-09-29T08:09:32;11.20;99.90
23079;DHT22;11707;50.830;4.364;2022-09-29T08:11:58;11.10;99.90
23079;DHT22;11707;50.830;4.364;2022-09-29T08:14:23;11.00;99.90
23079;DHT22;11707;50.830;4.364;2022-09-29T08:16:51;11.10;99.90
23079;DHT22;11707;50.830;4.364;2022-09-29T08:19:17;11.40;99.90
23079;DHT22;11707;50.830;4.364;2022-09-29T08:21:42;11.50;99.90
23079;DHT22;11707;50.830;4.364;2022-09-29T08:24:12;11.60;99.90
23079;DHT22;11707;50.830;4.364;2022-09-29T08:26:38;11.50;99.90
23079;DHT22;11707;50.830;4.364;2022-09-29T08:29:05;11.60;99.90
23079;DHT22;11707;50.830;4.364;2022-09-29T08:31:31;11.60;99.90
23079;DHT22;11707;50.830;4.364;2022-09-29T08:33:58;11.80;99.90
23079;DHT22;11707;50.830;4.364;2022-09-29T08:36:24;12.00;99.90
23079;DHT22;11707;50.830;4.364;2022-09-29T08:38:52;12.00;99.90
23079;DHT22;11707;50.830;4.364;2022-09-29T08:49:40;11.80;99.90
23079;DHT22;11707;50.830;4.364;2022-09-29T08:52:12;11.90;99.90
23079;DHT22;11707;50.830;4.364;2022-09-29T08:54:42;12.00;99.90
23079;DHT22;11707;50.830;4.364;2022-09-29T08:57:17;12.40;99.90
23079;DHT22;11707;50.830;4.364;2022-09-29T08:59:56;12.70;99.90
23079;DHT22;11707;50.830;4.364;2022-09-29T09:08:48;13.10;99.90
23079;DHT22;11707;50.830;4.364;2022-09-29T09:11:47;13.20;99.90
23079;DHT22;11707;50.830;4.364;2022-09-29T09:17:08;13.00;99.90
23079;DHT22;11707;50.830;4.364;2022-09-29T09:22:36;12.90;99.90
23079;DHT22;11707;50.830;4.364;2022-09-29T09:25:18;13.00;99.90
23079;DHT22;11707;50.830;4.364;2022-09-29T09:27:51;13.00;99.90
23079;DHT22;11707;50.830;4.364;2022-09-29T09:30:20;13.10;99.90
23079;DHT22;11707;50.830;4.364;2022-09-29T09:32:50;13.00;99.90
23079;DHT22;11707;50.830;4.364;2022-09-29T09:35:30;13.10;99.90
23079;DHT22;11707;50.830;4.364;2022-09-29T09:38:05;13.10;99.90
23079;DHT22;11707;50.830;4.364;2022-09-29T09:40:39;13.00;99.90
23079;DHT22;11707;50.830;4.364;2022-09-29T09:43:16;12.80;99.90
23079;DHT22;11707;50.830;4.364;2022-09-29T09:46:15;12.90;99.90
23079;DHT22;11707;50.830;4.364;2022-09-29T09:48:55;13.00;99.90
23079;DHT22;11707;50.830;4.364;2022-09-29T09:54:15;13.10;99.90
23079;DHT22;11707;50.830;4.364;2022-09-29T10:02:02;13.30;99.90
23079;DHT22;11707;50.830;4.364;2022-09-29T10:04:27;13.60;99.90
23079;DHT22;11707;50.830;4.364;2022-09-29T10:06:54;13.80;99.90
23079;DHT22;11707;50.830;4.364;2022-09-29T10:09:20;13.80;99.90
23079;DHT22;11707;50.830;4.364;2022-09-29T10:11:46;14.10;99.90
23079;DHT22;11707;50.830;4.364;2022-09-29T10:22:22;14.40;99.90
23079;DHT22;11707;50.830;4.364;2022-09-29T10:24:51;14.40;99.90
23079;DHT22;11707;50.830;4.364;2022-09-29T10:27:22;14.40;99.90
23079;DHT22;11707;50.830;4.364;2022-09-29T10:29:50;14.40;99.90
23079;DHT22;11707;50.830;4.364;2022-09-29T10:32:32;14.30;99.90
23079;DHT22;11707;50.830;4.364;2022-09-29T10:35:13;14.40;99.90
23079;DHT22;11707;50.830;4.364;2022-09-29T10:37:47;14.60;99.90
23079;DHT22;11707;50.830;4.364;2022-09-29T10:40:18;14.60;99.90
23079;DHT22;11707;50.830;4.364;2022-09-29T10:42:49;14.60;99.90
23079;DHT22;11707;50.830;4.364;2022-09-29T10:45:24;14.60;99.90
23079;DHT22;11707;50.830;4.364;2022-09-29T10:50:24;15.20;99.90
23079;DHT22;11707;50.830;4.364;2022-09-29T10:52:53;15.40;99.90
23079;DHT22;11707;50.830;4.364;2022-09-29T10:55:28;15.50;99.90
23079;DHT22;11707;50.830;4.364;2022-09-29T10:57:59;15.50;99.90
23079;DHT22;11707;50.830;4.364;2022-09-29T11:00:26;15.40;99.90
23079;DHT22;11707;50.830;4.364;2022-09-29T11:05:33;15.60;99.90
23079;DHT22;11707;50.830;4.364;2022-09-29T11:08:00;15.60;99.90
23079;DHT22;11707;50.830;4.364;2022-09-29T11:10:34;15.40;99.90
23079;DHT22;11707;50.830;4.364;2022-09-29T11:15:49;15.20;99.90
23079;DHT22;11707;50.830;4.364;2022-09-29T11:18:22;15.10;99.90
23079;DHT22;11707;50.830;4.364;2022-09-29T11:24:31;15.00;99.90
23079;DHT22;11707;50.830;4.364;2022-09-29T11:30:15;14.90;99.90
23079;DHT22;11707;50.830;4.364;2022-09-29T11:40:32;14.80;99.90
23079;DHT22;11707;50.830;4.364;2022-09-29T11:59:54;15.80;99.90
23079;DHT22;11707;50.830;4.364;2022-09-29T12:05:12;16.40;99.90
23079;DHT22;11707;50.830;4.364;2022-09-29T12:16:24;15.80;99.90
23079;DHT22;11707;50.830;4.364;2022-09-29T12:18:57;15.70;99.90
23079;DHT22;11707;50.830;4.364;2022-09-29T12:21:47;15.50;99.90
23079;DHT22;11707;50.830;4.364;2022-09-29T12:26:52;15.60;99.90
23079;DHT22;11707;50.830;4.364;2022-09-29T12:31:53;15.40;99.90
23079;DHT22;11707;50.830;4.364;2022-09-29T12:34:37;15.50;99.90
23079;DHT22;11707;50.830;4.364;2022-09-29T12:37:40;15.70;99.90
23079;DHT22;11707;50.830;4.364;2022-09-29T12:43:09;16.00;99.90
23079;DHT22;11707;50.830;4.364;2022-09-29T12:49:25;16.40;99.90
23079;DHT22;11707;50.830;4.364;2022-09-29T12:51:43;16.30;99.90
23079;DHT22;11707;50.830;4.364;2022-09-29T12:54:20;16.40;99.90
23079;DHT22;11707;50.830;4.364;2022-09-29T12:57:05;16.60;99.90
23079;DHT22;11707;50.830;4.364;2022-09-29T13:05:49;16.40;99.90
23079;DHT22;11707;50.830;4.364;2022-09-29T13:28:24;17.30;99.90
23079;DHT22;11707;50.830;4.364;2022-09-29T13:30:54;17.10;99.90
23079;DHT22;11707;50.830;4.364;2022-09-29T13:33:24;16.90;99.90
23079;DHT22;11707;50.830;4.364;2022-09-29T13:35:51;16.40;99.90
23079;DHT22;11707;50.830;4.364;2022-09-29T13:38:25;16.20;99.90
23079;DHT22;11707;50.830;4.364;2022-09-29T13:46:34;16.20;99.90
23079;DHT22;11707;50.830;4.364;2022-09-29T14:04:55;16.30;99.90
23079;DHT22;11707;50.830;4.364;2022-09-29T14:12:57;16.70;99.90
23079;DHT22;11707;50.830;4.364;2022-09-29T14:15:25;16.80;99.90
23079;DHT22;11707;50.830;4.364;2022-09-29T14:18:02;16.90;99.90
23079;DHT22;11707;50.830;4.364;2022-09-29T14:20:33;17.00;99.90
23079;DHT22;11707;50.830;4.364;2022-09-29T14:23:03;16.70;99.90
23079;DHT22;11707;50.830;4.364;2022-09-29T14:28:18;16.20;99.90
23079;DHT22;11707;50.830;4.364;2022-09-29T14:30:47;16.30;99.90
23079;DHT22;11707;50.830;4.364;2022-09-29T14:33:36;16.30;99.90
23079;DHT22;11707;50.830;4.364;2022-09-29T14:36:11;16.40;99.90
23079;DHT22;11707;50.830;4.364;2022-09-29T14:38:48;16.50;99.90
23079;DHT22;11707;50.830;4.364;2022-09-29T14:44:03;15.80;99.90
23079;DHT22;11707;50.830;4.364;2022-09-29T14:46:43;15.80;99.90
23079;DHT22;11707;50.830;4.364;2022-09-29T14:58:40;15.70;99.90
23079;DHT22;11707;50.830;4.364;2022-09-29T15:01:28;15.70;99.90
23079;DHT22;11707;50.830;4.364;2022-09-29T15:03:57;15.80;99.90
23079;DHT22;11707;50.830;4.364;2022-09-29T15:06:28;16.00;99.90
23079;DHT22;11707;50.830;4.364;2022-09-29T15:09:12;16.30;99.90
23079;DHT22;11707;50.830;4.364;2022-09-29T15:11:47;16.60;99.90
23079;DHT22;11707;50.830;4.364;2022-09-29T15:19:57;16.10;99.90
23079;DHT22;11707;50.830;4.364;2022-09-29T15:27:45;15.60;99.90
23079;DHT22;11707;50.830;4.364;2022-09-29T15:30:14;15.30;99.90
23079;DHT22;11707;50.830;4.364;2022-09-29T15:32:43;15.20;99.90
23079;DHT22;11707;50.830;4.364;2022-09-29T15:35:21;15.20;99.90
23079;DHT22;11707;50.830;4.364;2022-09-29T15:40:21;15.20;99.90
23079;DHT22;11707;50.830;4.364;2022-09-29T15:42:48;15.30;99.90
23079;DHT22;11707;50.830;4.364;2022-09-29T15:45:22;15.20;99.90
23079;DHT22;11707;50.830;4.364;2022-09-29T15:48:00;15.10;99.90
23079;DHT22;11707;50.830;4.364;2022-09-29T15:50:28;15.00;99.90
23079;DHT22;11707;50.830;4.364;2022-09-29T15:52:58;15.00;99.90
23079;DHT22;11707;50.830;4.364;2022-09-29T15:55:31;14.90;99.90
23079;DHT22;11707;50.830;4.364;2022-09-29T15:57:57;15.00;99.90
23079;DHT22;11707;50.830;4.364;2022-09-29T16:05:26;14.80;99.90
23079;DHT22;11707;50.830;4.364;2022-09-29T16:08:01;14.70;99.90
23079;DHT22;11707;50.830;4.364;2022-09-29T16:10:33;14.70;99.90
23079;DHT22;11707;50.830;4.364;2022-09-29T16:13:06;14.60;99.90
23079;DHT22;11707;50.830;4.364;2022-09-29T16:15:34;14.60;99.90
23079;DHT22;11707;50.830;4.364;2022-09-29T16:18:05;14.50;99.90
23079;DHT22;11707;50.830;4.364;2022-09-29T16:20:34;14.60;99.90
23079;DHT22;11707;50.830;4.364;2022-09-29T16:25:41;14.40;99.90
23079;DHT22;11707;50.830;4.364;2022-09-29T16:28:23;14.40;99.90
23079;DHT22;11707;50.830;4.364;2022-09-29T16:31:15;14.50;99.90
23079;DHT22;11707;50.830;4.364;2022-09-29T16:33:46;14.50;99.90
23079;DHT22;11707;50.830;4.364;2022-09-29T16:36:21;14.60;99.90
23079;DHT22;11707;50.830;4.364;2022-09-29T16:38:48;14.60;99.90
23079;DHT22;11707;50.830;4.364;2022-09-29T16:41:33;14.40;99.90
23079;DHT22;11707;50.830;4.364;2022-09-29T16:46:50;14.60;99.90
23079;DHT22;11707;50.830;4.364;2022-09-29T16:49:21;14.70;99.90
23079;DHT22;11707;50.830;4.364;2022-09-29T16:51:48;14.70;99.90
23079;DHT22;11707;50.830;4.364;2022-09-29T16:54:21;14.70;99.90
23079;DHT22;11707;50.830;4.364;2022-09-29T16:56:49;14.90;99.90
23079;DHT22;11707;50.830;4.364;2022-09-29T16:59:33;14.90;99.90
23079;DHT22;11707;50.830;4.364;2022-09-29T17:01:59;14.70;99.90
23079;DHT22;11707;50.830;4.364;2022-09-29T17:04:24;14.60;99.90
23079;DHT22;11707;50.830;4.364;2022-09-29T17:06:50;14.40;99.90
23079;DHT22;11707;50.830;4.364;2022-09-29T17:09:26;14.20;99.90
23079;DHT22;11707;50.830;4.364;2022-09-29T17:11:52;14.20;99.90
23079;DHT22;11707;50.830;4.364;2022-09-29T17:14:17;14.20;99.90
23079;DHT22;11707;50.830;4.364;2022-09-29T17:16:44;14.20;99.90
23079;DHT22;11707;50.830;4.364;2022-09-29T17:19:10;14.20;99.90
23079;DHT22;11707;50.830;4.364;2022-09-29T17:21:37;14.10;99.90
23079;DHT22;11707;50.830;4.364;2022-09-29T17:24:02;14.20;99.90
23079;DHT22;11707;50.830;4.364;2022-09-29T17:26:39;14.20;99.90
23079;DHT22;11707;50.830;4.364;2022-09-29T17:29:25;14.20;99.90
23079;DHT22;11707;50.830;4.364;2022-09-29T17:31:50;14.30;99.90
23079;DHT22;11707;50.830;4.364;2022-09-29T17:34:16;14.20;99.90
23079;DHT22;11707;50.830;4.364;2022-09-29T17:36:56;14.20;99.90
23079;DHT22;11707;50.830;4.364;2022-09-29T17:39:24;14.10;99.90
23079;DHT22;11707;50.830;4.364;2022-09-29T17:41:50;14.20;99.90
23079;DHT22;11707;50.830;4.364;2022-09-29T17:44:17;14.30;99.90
23079;DHT22;11707;50.830;4.364;2022-09-29T17:46:43;14.40;99.90
23079;DHT22;11707;50.830;4.364;2022-09-29T17:49:14;14.40;99.90
23079;DHT22;11707;50.830;4.364;2022-09-29T17:51:40;14.20;99.90
23079;DHT22;11707;50.830;4.364;2022-09-29T17:54:06;14.20;99.90
23079;DHT22;11707;50.830;4.364;2022-09-29T17:56:38;14.10;99.90
23079;DHT22;11707;50.830;4.364;2022-09-29T17:59:04;14.00;99.90
23079;DHT22;11707;50.830;4.364;2022-09-29T18:01:32;14.00;99.90
23079;DHT22;11707;50.830;4.364;2022-09-29T18:03:59;13.90;99.90
23079;DHT22;11707;50.830;4.364;2022-09-29T18:06:25;13.80;99.90
23079;DHT22;11707;50.830;4.364;2022-09-29T18:08:53;13.80;99.90
23079;DHT22;11707;50.830;4.364;2022-09-29T18:11:23;13.80;99.90
23079;DHT22;11707;50.830;4.364;2022-09-29T18:13:49;13.80;99.90
23079;DHT22;11707;50.830;4.364;2022-09-29T18:16:20;13.80;99.90
23079;DHT22;11707;50.830;4.364;2022-09-29T18:18:46;13.80;99.90
23079;DHT22;11707;50.830;4.364;2022-09-29T18:21:13;13.70;99.90
23079;DHT22;11707;50.830;4.364;2022-09-29T18:23:41;13.70;99.90
23079;DHT22;11707;50.830;4.364;2022-09-29T18:26:09;13.80;99.90
23079;DHT22;11707;50.830;4.364;2022-09-29T18:28:36;13.80;99.90
23079;DHT22;11707;50.830;4.364;2022-09-29T18:31:11;14.00;99.90
23079;DHT22;11707;50.830;4.364;2022-09-29T18:33:38;13.90;99.90
23079;DHT22;11707;50.830;4.364;2022-09-29T18:36:04;13.90;99.90
23079;DHT22;11707;50.830;4.364;2022-09-29T18:38:30;13.90;99.90
23079;DHT22;11707;50.830;4.364;2022-09-29T18:40:56;14.00;99.90
23079;DHT22;11707;50.830;4.364;2022-09-29T18:43:23;14.00;99.90
23079;DHT22;11707;50.830;4.364;2022-09-29T18:45:53;14.00;99.90
23079;DHT22;11707;50.830;4.364;2022-09-29T18:48:19;13.80;99.90
23079;DHT22;11707;50.830;4.364;2022-09-29T18:50:47;13.80;99.90
23079;DHT22;11707;50.830;4.364;2022-09-29T18:53:15;13.70;99.90
23079;DHT22;11707;50.830;4.364;2022-09-29T18:55:42;13.60;99.90
23079;DHT22;11707;50.830;4.364;2022-09-29T18:58:12;13.70;99.90
23079;DHT22;11707;50.830;4.364;2022-09-29T19:00:42;13.80;99.90
23079;DHT22;11707;50.830;4.364;2022-09-29T19:03:08;13.80;99.90
23079;DHT22;11707;50.830;4.364;2022-09-29T19:05:34;13.80;99.90
23079;DHT22;11707;50.830;4.364;2022-09-29T19:08:03;13.70;99.90
23079;DHT22;11707;50.830;4.364;2022-09-29T19:10:33;13.70;99.90
23079;DHT22;11707;50.830;4.364;2022-09-29T19:13:06;13.60;99.90
23079;DHT22;11707;50.830;4.364;2022-09-29T19:15:35;13.60;99.90
23079;DHT22;11707;50.830;4.364;2022-09-29T19:18:04;13.40;99.90
23079;DHT22;11707;50.830;4.364;2022-09-29T19:20:30;13.40;99.90
23079;DHT22;11707;50.830;4.364;2022-09-29T19:22:57;13.50;99.90
23079;DHT22;11707;50.830;4.364;2022-09-29T19:25:29;13.50;99.90
23079;DHT22;11707;50.830;4.364;2022-09-29T19:27:55;13.40;99.90
23079;DHT22;11707;50.830;4.364;2022-09-29T19:30:23;13.40;99.90
23079;DHT22;11707;50.830;4.364;2022-09-29T19:32:49;13.30;99.90
23079;DHT22;11707;50.830;4.364;2022-09-29T19:35:18;13.50;99.90
23079;DHT22;11707;50.830;4.364;2022-09-29T19:37:44;13.50;99.90
23079;DHT22;11707;50.830;4.364;2022-09-29T19:40:22;13.40;99.90